createdAt,value
2022-08-26T00:01:24.346Z,3.33
2022-08-26T00:03:56.500Z,3.43
2022-08-26T00:06:23.051Z,3.80
2022-08-26T00:08:49.466Z,3.20
2022-08-26T00:11:15.977Z,3.60
2022-08-26T00:13:54.662Z,3.53
2022-08-26T00:16:21.969Z,3.67
2022-08-26T00:18:48.567Z,3.53
2022-08-26T00:21:16.331Z,3.73
2022-08-26T00:23:43.175Z,3.53
2022-08-26T00:26:11.660Z,3.90
2022-08-26T00:28:39.325Z,3.70
2022-08-26T00:31:07.331Z,3.70
2022-08-26T00:33:38.172Z,3.50
2022-08-26T00:36:05.451Z,3.93
2022-08-26T00:38:31.880Z,3.60
2022-08-26T00:40:58.587Z,3.63
2022-08-26T00:43:25.939Z,3.83
2022-08-26T00:45:55.145Z,3.63
2022-08-26T00:48:24.884Z,3.80
2022-08-26T00:51:02.853Z,3.70
2022-08-26T00:53:34.379Z,3.87
2022-08-26T00:56:09.648Z,3.60
2022-08-26T00:58:42.955Z,3.83
2022-08-26T01:01:11.212Z,4.37
2022-08-26T01:03:38.714Z,4.20
2022-08-26T01:06:06.576Z,3.70
2022-08-26T01:08:39.818Z,3.60
2022-08-26T01:11:06.815Z,4.07
2022-08-26T01:13:37.051Z,3.47
2022-08-26T01:16:06.171Z,3.73
2022-08-26T01:18:33.607Z,4.10
2022-08-26T01:21:42.444Z,3.70
2022-08-26T01:24:10.903Z,4.03
2022-08-26T01:26:43.427Z,4.00
2022-08-26T01:29:20.205Z,4.10
2022-08-26T01:31:52.170Z,3.63
2022-08-26T01:34:23.886Z,4.37
2022-08-26T01:36:58.586Z,4.13
2022-08-26T01:39:25.328Z,4.20
2022-08-26T01:41:55.641Z,4.10
2022-08-26T01:44:26.798Z,4.33
2022-08-26T01:46:55.672Z,4.00
2022-08-26T01:49:24.383Z,3.90
2022-08-26T01:51:55.100Z,3.70
2022-08-26T01:54:23.000Z,4.03
2022-08-26T01:56:51.253Z,3.83
2022-08-26T01:59:20.151Z,4.07
2022-08-26T02:01:48.601Z,4.17
2022-08-26T02:04:33.083Z,3.83
2022-08-26T02:07:03.374Z,3.50
2022-08-26T02:09:30.292Z,4.03
2022-08-26T02:12:00.548Z,4.13
2022-08-26T02:14:36.840Z,3.97
2022-08-26T02:17:11.169Z,4.33
2022-08-26T02:19:42.162Z,4.40
2022-08-26T02:22:14.292Z,4.20
2022-08-26T02:24:51.385Z,4.17
2022-08-26T02:27:23.672Z,3.93
2022-08-26T02:30:17.182Z,4.60
2022-08-26T02:32:44.120Z,4.50
2022-08-26T02:35:12.363Z,4.50
2022-08-26T02:37:39.569Z,4.23
2022-08-26T02:40:11.509Z,4.80
2022-08-26T02:42:38.083Z,4.07
2022-08-26T02:45:06.252Z,4.67
2022-08-26T02:47:34.445Z,4.27
2022-08-26T02:50:02.074Z,4.30
2022-08-26T02:52:28.614Z,5.00
2022-08-26T02:54:55.276Z,4.07
2022-08-26T02:57:22.114Z,4.63
2022-08-26T02:59:48.685Z,4.57
2022-08-26T03:02:15.194Z,4.77
2022-08-26T03:04:57.384Z,4.73
2022-08-26T03:07:24.909Z,4.47
2022-08-26T03:09:52.933Z,4.60
2022-08-26T03:12:20.326Z,4.10
2022-08-26T03:14:47.498Z,4.57
2022-08-26T03:17:13.890Z,4.70
2022-08-26T03:19:40.436Z,4.60
2022-08-26T03:22:07.724Z,4.30
2022-08-26T03:24:34.401Z,4.87
2022-08-26T03:27:01.944Z,4.67
2022-08-26T03:29:53.787Z,4.87
2022-08-26T03:32:20.689Z,4.50
2022-08-26T03:34:47.159Z,4.77
2022-08-26T03:37:13.595Z,4.20
2022-08-26T03:39:40.471Z,4.50
2022-08-26T03:42:07.256Z,4.67
2022-08-26T03:44:34.020Z,5.40
2022-08-26T03:47:00.575Z,4.80
2022-08-26T03:49:28.957Z,5.27
2022-08-26T03:51:55.468Z,4.90
2022-08-26T03:54:21.898Z,4.80
2022-08-26T03:56:48.288Z,5.03
2022-08-26T03:59:14.714Z,4.70
2022-08-26T04:01:41.252Z,4.77
2022-08-26T04:04:07.788Z,5.17
2022-08-26T04:06:37.876Z,5.27
2022-08-26T04:09:08.552Z,5.10
2022-08-26T04:11:38.629Z,4.50
2022-08-26T04:14:09.343Z,5.10
2022-08-26T04:16:36.794Z,5.20
2022-08-26T04:19:03.379Z,5.23
2022-08-26T04:21:29.911Z,5.47
2022-08-26T04:23:56.496Z,4.87
2022-08-26T04:26:25.583Z,4.70
2022-08-26T04:28:55.141Z,12.33
2022-08-26T04:31:23.007Z,5.43
2022-08-26T04:33:50.645Z,5.63
2022-08-26T04:36:19.949Z,5.60
2022-08-26T04:38:47.194Z,5.07
2022-08-26T04:41:15.425Z,5.27
2022-08-26T04:43:44.024Z,5.60
2022-08-26T04:46:12.992Z,5.03
2022-08-26T04:48:41.326Z,5.67
2022-08-26T04:51:09.387Z,4.90
2022-08-26T04:53:36.335Z,5.07
2022-08-26T04:56:03.903Z,6.33
2022-08-26T04:58:31.103Z,5.13
2022-08-26T05:00:58.348Z,5.53
2022-08-26T05:03:30.593Z,5.17
2022-08-26T05:05:58.105Z,4.73
2022-08-26T05:08:24.888Z,5.53
2022-08-26T05:10:56.033Z,5.57
2022-08-26T05:13:26.139Z,6.00
2022-08-26T05:15:52.758Z,5.83
2022-08-26T05:18:21.528Z,5.30
2022-08-26T05:20:53.890Z,5.50
2022-08-26T05:23:22.798Z,5.23
2022-08-26T05:25:54.611Z,5.63
2022-08-26T05:28:23.683Z,5.80
2022-08-26T05:30:51.350Z,5.87
2022-08-26T05:33:19.170Z,6.30
2022-08-26T05:35:46.204Z,5.77
2022-08-26T05:38:22.342Z,5.30
2022-08-26T05:40:52.838Z,5.63
2022-08-26T05:43:20.308Z,5.30
2022-08-26T05:45:49.387Z,5.70
2022-08-26T05:48:24.423Z,5.83
2022-08-26T05:50:53.035Z,5.80
2022-08-26T05:53:21.621Z,5.80
2022-08-26T05:55:50.930Z,5.90
2022-08-26T05:58:22.293Z,6.00
2022-08-26T06:01:10.273Z,5.67
2022-08-26T06:03:39.794Z,6.43
2022-08-26T06:06:09.719Z,6.20
2022-08-26T06:08:37.725Z,6.60
2022-08-26T06:11:07.364Z,6.47
2022-08-26T06:13:35.037Z,6.60
2022-08-26T06:16:05.303Z,5.63
2022-08-26T06:18:37.533Z,5.53
2022-08-26T06:21:27.922Z,5.20
2022-08-26T06:24:15.568Z,5.47
2022-08-26T06:26:46.968Z,5.50
2022-08-26T06:29:24.405Z,5.53
2022-08-26T06:31:52.595Z,5.93
2022-08-26T06:34:19.870Z,5.67
2022-08-26T06:36:47.269Z,6.30
2022-08-26T06:39:15.322Z,5.13
2022-08-26T06:41:43.599Z,5.30
2022-08-26T06:44:10.547Z,5.60
2022-08-26T06:46:37.141Z,4.87
2022-08-26T06:49:05.501Z,4.20
2022-08-26T06:51:35.152Z,4.17
2022-08-26T06:54:03.421Z,4.60
2022-08-26T06:56:53.551Z,3.80
2022-08-26T06:59:22.059Z,3.57
2022-08-26T07:01:49.620Z,3.50
2022-08-26T07:04:21.853Z,3.40
2022-08-26T07:06:52.353Z,3.83
2022-08-26T07:12:11.263Z,3.80
2022-08-26T07:14:38.160Z,3.50
2022-08-26T07:17:09.198Z,3.27
2022-08-26T07:19:38.816Z,3.37
2022-08-26T07:22:06.982Z,3.43
2022-08-26T07:24:38.191Z,3.80
2022-08-26T07:27:08.601Z,3.67
2022-08-26T07:29:37.004Z,3.30
2022-08-26T07:32:04.088Z,3.67
2022-08-26T07:34:32.306Z,3.37
2022-08-26T07:37:00.179Z,4.00
2022-08-26T07:39:27.861Z,3.90
2022-08-26T07:41:55.326Z,4.00
2022-08-26T07:44:28.229Z,3.97
2022-08-26T07:46:54.706Z,3.77
2022-08-26T07:49:26.663Z,3.57
2022-08-26T07:51:55.130Z,3.83
2022-08-26T07:54:26.639Z,3.80
2022-08-26T07:56:54.709Z,3.70
2022-08-26T07:59:23.293Z,3.63
2022-08-26T08:01:49.807Z,3.60
2022-08-26T08:04:18.884Z,3.60
2022-08-26T08:06:52.153Z,3.70
2022-08-26T08:09:18.644Z,3.20
2022-08-26T08:11:46.579Z,3.63
2022-08-26T08:14:15.366Z,3.60
2022-08-26T08:16:47.017Z,3.53
2022-08-26T08:19:18.165Z,3.57
2022-08-26T08:21:44.692Z,3.00
2022-08-26T08:24:11.458Z,3.50
2022-08-26T08:26:38.028Z,3.20
2022-08-26T08:29:06.068Z,3.63
2022-08-26T08:34:21.447Z,3.40
2022-08-26T08:36:53.400Z,3.50
2022-08-26T08:39:20.693Z,3.50
2022-08-26T08:41:54.663Z,3.67
2022-08-26T08:47:11.318Z,3.57
2022-08-26T08:49:37.746Z,3.30
2022-08-26T08:52:18.712Z,3.37
2022-08-26T08:54:46.427Z,3.50
2022-08-26T08:57:21.967Z,3.87
2022-08-26T09:00:12.228Z,3.37
2022-08-26T09:02:50.756Z,3.63
2022-08-26T09:05:48.676Z,3.20
2022-08-26T09:08:19.841Z,3.10
2022-08-26T09:10:51.833Z,3.00
2022-08-26T09:13:25.351Z,3.63
2022-08-26T09:16:08.373Z,3.37
2022-08-26T09:19:22.418Z,3.30
2022-08-26T09:22:05.800Z,3.53
2022-08-26T09:24:42.104Z,3.30
2022-08-26T09:27:37.834Z,3.33
2022-08-26T09:30:05.806Z,4.10
2022-08-26T09:32:32.983Z,3.90
2022-08-26T09:35:04.123Z,2.70
2022-08-26T09:40:22.708Z,4.17
2022-08-26T09:43:22.482Z,3.40
2022-08-26T09:45:58.514Z,3.13
2022-08-26T09:48:25.746Z,4.70
2022-08-26T09:50:56.437Z,3.33
2022-08-26T09:53:30.377Z,3.50
2022-08-26T09:56:40.559Z,3.87
2022-08-26T09:59:11.412Z,4.20
2022-08-26T10:01:43.543Z,3.80
2022-08-26T10:04:23.706Z,3.63
2022-08-26T10:07:06.583Z,3.07
2022-08-26T10:09:38.894Z,3.43
2022-08-26T10:12:16.912Z,3.30
2022-08-26T10:14:50.036Z,3.83
2022-08-26T10:17:19.453Z,3.97
2022-08-26T10:19:56.998Z,4.07
2022-08-26T10:22:39.040Z,3.50
2022-08-26T10:25:13.225Z,3.30
2022-08-26T10:27:51.340Z,4.00
2022-08-26T10:30:23.599Z,3.83
2022-08-26T10:33:07.420Z,3.80
2022-08-26T10:35:37.516Z,2.90
2022-08-26T10:38:14.443Z,4.20
2022-08-26T10:40:53.317Z,3.40
2022-08-26T10:43:34.457Z,3.77
2022-08-26T10:46:05.122Z,3.40
2022-08-26T10:48:43.890Z,3.80
2022-08-26T10:51:13.353Z,4.00
2022-08-26T10:53:59.590Z,3.57
2022-08-26T10:57:04.238Z,3.30
2022-08-26T10:59:50.426Z,4.27
2022-08-26T11:02:41.027Z,3.83
2022-08-26T11:05:25.237Z,3.70
2022-08-26T11:08:13.016Z,4.00
2022-08-26T11:10:42.441Z,3.80
2022-08-26T11:13:09.137Z,3.60
2022-08-26T11:15:38.639Z,3.30
2022-08-26T11:18:32.318Z,3.60
2022-08-26T11:20:58.728Z,4.00
2022-08-26T11:23:27.803Z,3.77
2022-08-26T11:26:09.636Z,3.63
2022-08-26T11:28:50.230Z,4.20
2022-08-26T11:31:26.065Z,4.47
2022-08-26T11:34:02.066Z,4.27
2022-08-26T11:36:35.121Z,4.40
2022-08-26T11:39:14.032Z,4.17
2022-08-26T11:41:49.399Z,4.67
2022-08-26T11:44:23.239Z,4.20
2022-08-26T11:46:57.494Z,4.43
2022-08-26T11:49:24.855Z,4.40
2022-08-26T11:51:51.767Z,4.50
2022-08-26T11:54:35.179Z,3.73
2022-08-26T11:57:09.402Z,3.70
2022-08-26T11:59:40.705Z,4.10
2022-08-26T12:02:17.983Z,4.90
2022-08-26T12:04:49.418Z,4.20
2022-08-26T12:07:17.100Z,4.33
2022-08-26T12:09:54.928Z,5.07
2022-08-26T12:12:36.083Z,4.77
2022-08-26T12:15:15.899Z,5.00
2022-08-26T12:17:44.824Z,4.60
2022-08-26T12:20:48.253Z,4.03
2022-08-26T12:23:28.106Z,4.73
2022-08-26T12:26:08.479Z,4.10
2022-08-26T12:28:45.814Z,4.63
2022-08-26T12:31:20.927Z,4.40
2022-08-26T12:33:49.266Z,4.27
2022-08-26T12:36:42.893Z,3.80
2022-08-26T12:39:24.183Z,4.37
2022-08-26T12:41:59.303Z,4.00
2022-08-26T12:44:41.824Z,4.53
2022-08-26T12:47:42.900Z,4.67
2022-08-26T12:50:20.669Z,4.30
2022-08-26T12:53:01.459Z,4.00
2022-08-26T12:55:39.335Z,4.33
2022-08-26T12:58:15.171Z,4.53
2022-08-26T13:00:48.153Z,4.23
2022-08-26T13:03:43.367Z,4.27
2022-08-26T13:06:20.356Z,3.90
2022-08-26T13:08:53.768Z,4.20
2022-08-26T13:11:28.387Z,3.50
2022-08-26T13:13:57.857Z,3.63
2022-08-26T13:16:25.295Z,3.67
2022-08-26T13:18:54.914Z,3.93
2022-08-26T13:21:28.143Z,2.83
2022-08-26T13:24:05.409Z,3.30
2022-08-26T13:26:34.471Z,3.40
2022-08-26T13:29:02.500Z,3.20
2022-08-26T13:31:32.870Z,3.40
2022-08-26T13:34:00.408Z,2.70
2022-08-26T13:36:27.681Z,3.10
2022-08-26T13:38:54.245Z,2.67
2022-08-26T13:41:29.260Z,3.50
2022-08-26T13:43:56.410Z,3.30
2022-08-26T13:46:22.977Z,2.93
2022-08-26T13:48:49.551Z,3.17
2022-08-26T13:51:18.657Z,3.60
2022-08-26T13:53:45.119Z,3.67
2022-08-26T13:56:11.677Z,3.90
2022-08-26T13:58:38.190Z,3.47
2022-08-26T14:01:04.725Z,3.37
2022-08-26T14:03:31.449Z,3.37
2022-08-26T14:05:58.188Z,3.63
2022-08-26T14:08:24.680Z,3.97
2022-08-26T14:10:51.234Z,3.90
2022-08-26T14:13:18.995Z,3.50
2022-08-26T14:15:46.276Z,3.93
2022-08-26T14:18:16.889Z,3.43
2022-08-26T14:20:51.864Z,4.23
2022-08-26T14:23:19.302Z,3.77
2022-08-26T14:25:45.738Z,4.20
2022-08-26T14:28:12.313Z,3.43
2022-08-26T14:30:43.723Z,4.00
2022-08-26T14:33:15.041Z,3.20
2022-08-26T14:35:47.896Z,3.63
2022-08-26T14:38:16.656Z,3.63
2022-08-26T14:40:45.018Z,3.63
2022-08-26T14:43:16.298Z,3.70
2022-08-26T14:45:45.574Z,3.80
2022-08-26T14:48:12.329Z,4.90
2022-08-26T14:50:39.280Z,4.77
2022-08-26T14:53:24.105Z,4.13
2022-08-26T14:55:50.597Z,4.00
2022-08-26T14:58:18.240Z,4.57
2022-08-26T15:00:44.815Z,5.05
2022-08-26T15:03:11.510Z,4.17
2022-08-26T15:05:39.800Z,4.27
2022-08-26T15:08:10.486Z,4.03
2022-08-26T15:10:37.371Z,4.57
2022-08-26T15:13:04.124Z,4.03
2022-08-26T15:15:30.845Z,4.40
2022-08-26T15:17:57.370Z,3.53
2022-08-26T15:20:24.232Z,4.20
2022-08-26T15:22:50.755Z,3.60
2022-08-26T15:25:18.099Z,4.20
2022-08-26T15:27:45.308Z,4.13
2022-08-26T15:30:12.808Z,3.70
2022-08-26T15:32:39.298Z,3.77
2022-08-26T15:35:09.119Z,4.07
2022-08-26T15:37:36.446Z,3.80
2022-08-26T15:40:04.620Z,3.87
2022-08-26T15:42:31.405Z,4.50
2022-08-26T15:44:57.927Z,4.60
2022-08-26T15:47:24.492Z,4.20
2022-08-26T15:49:51.048Z,3.77
2022-08-26T15:52:17.604Z,4.37
2022-08-26T15:54:44.107Z,4.03
2022-08-26T15:57:12.419Z,3.90
2022-08-26T15:59:40.317Z,4.77
2022-08-26T16:02:07.362Z,3.83
2022-08-26T16:04:33.936Z,3.43
2022-08-26T16:07:00.819Z,3.53
2022-08-26T16:09:28.710Z,3.23
2022-08-26T16:11:56.164Z,3.50
2022-08-26T16:14:23.072Z,3.33
2022-08-26T16:16:50.457Z,2.50
2022-08-26T16:19:17.536Z,3.17
2022-08-26T16:21:44.644Z,3.00
2022-08-26T16:24:12.020Z,2.87
2022-08-26T16:26:40.330Z,2.83
2022-08-26T16:29:10.123Z,2.77
2022-08-26T16:31:38.240Z,3.00
2022-08-26T16:34:06.499Z,2.47
2022-08-26T16:36:34.080Z,2.60
2022-08-26T16:39:01.074Z,2.40
2022-08-26T16:41:29.922Z,2.80
2022-08-26T16:43:57.010Z,2.60
2022-08-26T16:46:27.444Z,2.77
2022-08-26T16:48:56.149Z,2.60
2022-08-26T16:51:24.466Z,2.37
2022-08-26T16:53:52.925Z,2.63
2022-08-26T16:56:22.877Z,2.30
2022-08-26T16:58:50.194Z,2.77
2022-08-26T17:01:17.996Z,2.40
2022-08-26T17:03:44.572Z,2.40
2022-08-26T17:06:11.061Z,2.30
2022-08-26T17:08:38.440Z,2.10
2022-08-26T17:11:05.537Z,1.87
2022-08-26T17:13:35.758Z,2.40
2022-08-26T17:16:05.573Z,2.10
2022-08-26T17:18:33.385Z,1.90
2022-08-26T17:21:02.838Z,1.57
2022-08-26T17:23:29.423Z,1.70
2022-08-26T17:25:55.866Z,1.70
2022-08-26T17:28:22.353Z,1.00
2022-08-26T17:30:48.921Z,1.50
2022-08-26T17:33:17.153Z,1.00
2022-08-26T17:35:48.652Z,1.40
2022-08-26T17:38:15.106Z,1.00
2022-08-26T17:40:41.604Z,1.67
2022-08-26T17:43:12.105Z,1.53
2022-08-26T17:45:40.318Z,1.83
2022-08-26T17:48:07.936Z,1.47
2022-08-26T17:50:34.533Z,1.50
2022-08-26T17:53:00.968Z,1.50
2022-08-26T17:55:27.522Z,1.37
2022-08-26T17:57:54.023Z,1.23
2022-08-26T18:00:22.678Z,1.50
2022-08-26T18:02:49.221Z,1.50
2022-08-26T18:05:17.420Z,2.33
2022-08-26T18:07:44.821Z,2.90
2022-08-26T18:10:13.731Z,2.23
2022-08-26T18:12:41.691Z,2.00
2022-08-26T18:15:10.262Z,2.00
2022-08-26T18:17:39.018Z,3.17
2022-08-26T18:20:11.165Z,3.20
2022-08-26T18:22:37.711Z,2.90
2022-08-26T18:25:05.515Z,2.80
2022-08-26T18:27:31.988Z,2.73
2022-08-26T18:29:58.767Z,6.03
2022-08-26T18:32:25.280Z,3.90
2022-08-26T18:34:51.703Z,3.60
2022-08-26T18:37:18.146Z,3.67
2022-08-26T18:39:44.674Z,3.20
2022-08-26T18:42:11.098Z,3.30
2022-08-26T18:44:37.618Z,3.33
2022-08-26T18:47:04.727Z,3.00
2022-08-26T18:49:31.604Z,2.83
2022-08-26T18:51:58.162Z,3.10
2022-08-26T18:54:31.012Z,2.83
2022-08-26T18:56:57.701Z,3.03
2022-08-26T18:59:30.520Z,3.20
2022-08-26T19:01:57.864Z,3.00
2022-08-26T19:04:27.263Z,3.47
2022-08-26T19:06:56.560Z,3.20
2022-08-26T19:09:24.885Z,3.83
2022-08-26T19:11:51.880Z,3.70
2022-08-26T19:14:19.155Z,3.57
2022-08-26T19:16:49.070Z,2.90
2022-08-26T19:19:16.201Z,3.30
2022-08-26T19:21:42.792Z,3.77
2022-08-26T19:24:15.572Z,3.60
2022-08-26T19:26:47.897Z,3.33
2022-08-26T19:29:15.416Z,3.60
2022-08-26T19:31:44.177Z,4.17
2022-08-26T19:34:15.061Z,3.43
2022-08-26T19:36:45.111Z,3.33
2022-08-26T19:39:13.419Z,3.53
2022-08-26T19:41:41.222Z,3.43
2022-08-26T19:44:35.521Z,3.70
2022-08-26T19:47:03.615Z,3.30
2022-08-26T19:49:30.543Z,3.83
2022-08-26T19:51:57.040Z,3.87
2022-08-26T19:54:23.718Z,3.67
2022-08-26T19:56:53.071Z,3.30
2022-08-26T19:59:20.046Z,3.63
2022-08-26T20:01:47.269Z,3.83
2022-08-26T20:04:27.861Z,3.63
2022-08-26T20:06:57.573Z,3.43
2022-08-26T20:09:25.436Z,4.00
2022-08-26T20:11:52.077Z,4.20
2022-08-26T20:14:23.276Z,3.87
2022-08-26T20:16:49.919Z,4.43
2022-08-26T20:19:37.470Z,3.50
2022-08-26T20:22:04.815Z,3.50
2022-08-26T20:24:32.594Z,3.50
2022-08-26T20:26:59.403Z,3.90
2022-08-26T20:29:25.839Z,3.97
2022-08-26T20:31:53.072Z,3.60
2022-08-26T20:34:19.868Z,3.80
2022-08-26T20:36:49.082Z,3.37
2022-08-26T20:39:17.043Z,3.53
2022-08-26T20:41:45.465Z,3.57
2022-08-26T20:44:13.805Z,3.43
2022-08-26T20:46:41.222Z,4.60
2022-08-26T20:49:08.443Z,3.63
2022-08-26T20:51:37.262Z,3.67
2022-08-26T20:54:06.307Z,3.90
2022-08-26T20:56:32.792Z,3.97
2022-08-26T20:59:00.359Z,3.80
2022-08-26T21:01:33.481Z,3.70
2022-08-26T21:04:01.862Z,3.87
2022-08-26T21:06:29.175Z,4.00
2022-08-26T21:08:55.711Z,3.50
2022-08-26T21:11:22.940Z,3.30
2022-08-26T21:14:04.520Z,3.70
2022-08-26T21:16:37.670Z,3.77
2022-08-26T21:19:06.605Z,3.10
2022-08-26T21:21:33.683Z,4.20
2022-08-26T21:24:00.684Z,3.80
2022-08-26T21:26:27.159Z,4.30
2022-08-26T21:28:54.235Z,4.40
2022-08-26T21:31:23.265Z,4.10
2022-08-26T21:33:50.934Z,4.27
2022-08-26T21:36:18.722Z,4.30
2022-08-26T21:38:45.286Z,4.50
2022-08-26T21:41:22.118Z,4.10
2022-08-26T21:43:50.623Z,4.63
2022-08-26T21:46:19.985Z,4.37
2022-08-26T21:48:50.976Z,4.83
2022-08-26T21:51:20.212Z,4.43
2022-08-26T21:53:46.797Z,4.20
2022-08-26T21:56:15.523Z,4.23
2022-08-26T21:58:42.042Z,4.87
2022-08-26T22:01:17.986Z,4.60
2022-08-26T22:03:47.464Z,4.23
2022-08-26T22:06:15.713Z,5.13
2022-08-26T22:08:42.157Z,5.03
2022-08-26T22:11:09.531Z,4.60
2022-08-26T22:13:37.869Z,4.47
2022-08-26T22:16:06.068Z,4.60
2022-08-26T22:18:32.966Z,4.53
2022-08-26T22:21:03.052Z,4.93
2022-08-26T22:23:30.213Z,5.53
2022-08-26T22:25:57.768Z,4.93
2022-08-26T22:28:24.341Z,4.70
2022-08-26T22:30:51.169Z,4.97
2022-08-26T22:33:18.427Z,4.80
2022-08-26T22:35:48.304Z,5.33
2022-08-26T22:38:15.769Z,4.90
2022-08-26T22:40:51.771Z,5.13
2022-08-26T22:43:19.264Z,5.00
2022-08-26T22:45:47.905Z,5.43
2022-08-26T22:48:18.323Z,5.50
2022-08-26T22:50:46.634Z,5.60
2022-08-26T22:53:14.337Z,5.73
2022-08-26T22:55:41.529Z,5.93
2022-08-26T22:58:08.308Z,5.57
2022-08-26T23:00:35.405Z,5.10
2022-08-26T23:03:04.254Z,5.40
2022-08-26T23:05:32.192Z,5.40
2022-08-26T23:07:59.207Z,5.77
2022-08-26T23:10:25.670Z,4.83
2022-08-26T23:12:52.602Z,5.33
2022-08-26T23:15:21.093Z,5.70
2022-08-26T23:17:48.472Z,5.33
2022-08-26T23:20:25.101Z,5.70
2022-08-26T23:22:52.015Z,6.10
2022-08-26T23:25:18.553Z,5.03
2022-08-26T23:27:45.272Z,5.70
2022-08-26T23:30:16.369Z,5.80
2022-08-26T23:32:42.966Z,5.60
2022-08-26T23:35:10.819Z,5.27
2022-08-26T23:37:44.056Z,5.27
2022-08-26T23:40:14.858Z,6.17
2022-08-26T23:42:42.480Z,6.57
2022-08-26T23:45:12.028Z,7.40
2022-08-26T23:47:39.684Z,7.47
2022-08-26T23:50:06.960Z,7.93
2022-08-26T23:52:52.126Z,8.23
2022-08-26T23:55:18.645Z,8.50
2022-08-26T23:57:45.188Z,4.27
